Time;durP1;ratioP1;P1;durP2;ratioP2;P2;SDS_P1;SDS_P2;PMS_P1;PMS_P2;Temp;Humidity;BMP_temperature;BMP_pressure;BME280_temperature;BME280_humidity;BME280_pressure;Samples;Min_cycle;Max_cycle;Signal;HPM_P1;HPM_P2
2023/08/14 00:00:07;;;;;;;9.00;2.95;;;;;;;20.46;100.00;100505.28;4997982;28;20361;-78
2023/08/14 00:02:34;;;;;;;12.35;4.45;;;;;;;20.41;100.00;100499.19;4991297;28;20289;-78
2023/08/14 00:05:01;;;;;;;6.70;2.55;;;;;;;20.38;100.00;100496.56;4991184;28;20231;-80
2023/08/14 00:07:28;;;;;;;5.55;2.05;;;;;;;20.37;100.00;100497.47;4998252;28;20314;-79
2023/08/14 00:09:54;;;;;;;8.95;3.17;;;;;;;20.35;100.00;100507.38;4992366;28;20346;-78
2023/08/14 00:12:21;;;;;;;5.78;2.38;;;;;;;20.36;100.00;100512.72;4998687;28;20230;-78
2023/08/14 00:14:48;;;;;;;9.68;3.38;;;;;;;20.24;100.00;100505.03;4990594;28;20347;-78
2023/08/14 00:17:15;;;;;;;8.98;3.22;;;;;;;20.31;100.00;100505.72;4992502;28;20244;-78
2023/08/14 00:19:42;;;;;;;9.80;3.40;;;;;;;20.32;100.00;100513.72;4992871;28;20224;-78
2023/08/14 00:22:09;;;;;;;5.75;2.03;;;;;;;20.37;100.00;100525.22;4997372;28;20235;-78
2023/08/14 00:24:35;;;;;;;11.70;3.97;;;;;;;20.39;100.00;100527.88;4996569;28;20288;-78
2023/08/14 00:27:02;;;;;;;8.40;3.13;;;;;;;20.38;100.00;100531.47;4996337;28;20286;-78
2023/08/14 00:29:29;;;;;;;8.82;3.15;;;;;;;20.36;100.00;100539.56;4998087;28;20242;-78
2023/08/14 00:31:55;;;;;;;7.50;2.63;;;;;;;20.41;100.00;100548.41;4998438;28;20231;-78
2023/08/14 00:34:22;;;;;;;6.65;2.28;;;;;;;20.33;100.00;100534.28;4996673;28;20239;-78
2023/08/14 00:36:49;;;;;;;12.15;4.00;;;;;;;20.32;100.00;100531.66;4986434;28;20250;-78
2023/08/14 00:39:16;;;;;;;9.02;3.30;;;;;;;20.34;100.00;100536.06;4999888;28;20235;-78
2023/08/14 00:41:43;;;;;;;9.57;3.30;;;;;;;20.34;100.00;100543.22;4995863;28;20270;-78
2023/08/14 00:44:09;;;;;;;11.77;4.05;;;;;;;20.37;100.00;100540.44;4997295;28;20232;-78
2023/08/14 00:46:36;;;;;;;14.23;4.50;;;;;;;20.43;100.00;100545.69;4989536;28;20228;-78
2023/08/14 00:49:03;;;;;;;9.77;3.08;;;;;;;20.40;100.00;100537.72;4996742;28;20259;-77
2023/08/14 00:51:30;;;;;;;7.30;2.25;;;;;;;20.36;100.00;100536.00;5006089;28;20245;-78
2023/08/14 00:53:56;;;;;;;8.50;2.80;;;;;;;20.41;100.00;100542.16;4998349;28;20236;-78
2023/08/14 00:56:23;;;;;;;7.78;3.03;;;;;;;20.40;100.00;100543.09;5001106;28;20719;-78
2023/08/14 00:58:50;;;;;;;11.90;4.00;;;;;;;20.44;100.00;100536.69;4997978;28;20262;-78
2023/08/14 01:01:17;;;;;;;7.32;2.50;;;;;;;20.54;100.00;100550.72;4998533;28;20224;-77
2023/08/14 01:03:44;;;;;;;15.05;5.43;;;;;;;20.59;100.00;100562.22;4993767;28;20599;-77
2023/08/14 01:06:11;;;;;;;9.73;3.05;;;;;;;20.57;100.00;100551.50;4998216;28;20242;-78
2023/08/14 01:08:38;;;;;;;10.00;3.47;;;;;;;20.57;100.00;100556.00;4991989;28;20243;-78
2023/08/14 01:11:21;;;;;;;9.70;3.25;;;;;;;20.56;100.00;100562.31;4998081;28;20311;-78
2023/08/14 01:14:13;;;;;;;11.43;3.95;;;;;;;20.57;100.00;100545.25;4986120;28;20481;-79
2023/08/14 01:16:43;;;;;;;12.10;3.72;;;;;;;20.57;100.00;100545.25;4988761;28;20230;-77
2023/08/14 01:19:29;;;;;;;11.43;3.88;;;;;;;20.57;100.00;100538.09;5012781;28;20331;-77
2023/08/14 01:22:04;;;;;;;11.35;3.80;;;;;;;20.51;100.00;100535.59;5009270;28;20262;-77
2023/08/14 01:25:02;;;;;;;10.88;3.40;;;;;;;20.48;100.00;100524.06;4992933;28;20226;-77
2023/08/14 01:27:29;;;;;;;9.80;3.30;;;;;;;20.49;100.00;100518.63;4984453;28;20645;-78
2023/08/14 01:29:57;;;;;;;12.30;3.92;;;;;;;20.54;100.00;100522.06;4984922;28;20700;-77
2023/08/14 01:32:24;;;;;;;10.30;3.58;;;;;;;20.56;100.00;100525.56;4986489;28;20250;-77
2023/08/14 01:34:51;;;;;;;10.38;3.22;;;;;;;20.66;100.00;100534.22;4976429;28;21268;-77
2023/08/14 01:37:33;;;;;;;7.32;2.40;;;;;;;20.67;100.00;100539.56;4993251;28;20227;-77
2023/08/14 01:40:26;;;;;;;9.05;2.78;;;;;;;20.60;100.00;100535.31;4991777;28;20228;-77
2023/08/14 01:42:58;;;;;;;12.45;3.80;;;;;;;20.62;100.00;100524.50;4989793;28;20231;-76
2023/08/14 01:45:27;;;;;;;8.75;2.60;;;;;;;20.61;100.00;100520.06;4998261;28;20227;-77
2023/08/14 01:47:55;;;;;;;11.15;3.13;;;;;;;20.57;100.00;100526.47;4987530;28;20236;-77
2023/08/14 01:50:24;;;;;;;12.98;3.53;;;;;;;20.59;100.00;100543.41;4996557;28;20262;-77
2023/08/14 01:52:51;;;;;;;11.07;3.58;;;;;;;20.55;100.00;100568.59;4991085;28;20235;-76
2023/08/14 01:55:18;;;;;;;9.50;3.03;;;;;;;20.51;100.00;100567.81;4992971;28;20236;-77
2023/08/14 01:57:44;;;;;;;15.80;4.85;;;;;;;20.54;100.00;100580.28;5002730;28;20235;-78
2023/08/14 02:00:11;;;;;;;9.07;3.20;;;;;;;20.47;100.00;100559.91;4990679;28;20228;-77
2023/08/14 02:02:38;;;;;;;15.68;4.65;;;;;;;20.38;100.00;100547.59;4989908;28;20757;-77
2023/08/14 02:05:05;;;;;;;13.93;4.13;;;;;;;20.42;100.00;100549.28;4996339;28;20223;-77
2023/08/14 02:07:32;;;;;;;11.05;3.83;;;;;;;20.38;100.00;100543.09;5010409;28;20233;-77
2023/08/14 02:09:59;;;;;;;15.57;4.82;;;;;;;20.40;100.00;100541.28;4998746;28;20243;-77
2023/08/14 02:12:25;;;;;;;7.93;2.47;;;;;;;20.35;100.00;100545.88;4998288;28;20235;-78
2023/08/14 02:14:52;;;;;;;11.93;3.63;;;;;;;20.24;100.00;100547.09;4997968;28;20313;-79
2023/08/14 02:17:19;;;;;;;13.27;3.92;;;;;;;20.26;100.00;100545.25;5002349;28;20235;-79
2023/08/14 02:19:46;;;;;;;13.48;4.35;;;;;;;20.33;100.00;100550.41;4994701;28;20240;-77
2023/08/14 02:22:12;;;;;;;7.80;2.47;;;;;;;20.34;100.00;100560.22;4997729;28;20231;-77
2023/08/14 02:24:39;;;;;;;15.50;4.88;;;;;;;20.41;100.00;100566.34;4996088;28;20227;-77
2023/08/14 02:27:06;;;;;;;8.82;2.80;;;;;;;20.37;100.00;100559.25;4998095;28;20228;-78
2023/08/14 02:29:33;;;;;;;11.15;3.30;;;;;;;20.34;100.00;100551.28;4994115;28;20689;-77
2023/08/14 02:31:59;;;;;;;12.02;4.05;;;;;;;20.34;100.00;100549.47;4991449;28;20712;-77
2023/08/14 02:34:47;;;;;;;7.85;3.00;;;;;;;20.29;100.00;100548.72;4998278;28;20237;-77
2023/08/14 02:37:15;;;;;;;13.50;4.95;;;;;;;20.30;100.00;100557.66;4997346;28;20242;-77
2023/08/14 02:39:42;;;;;;;17.83;5.03;;;;;;;20.25;100.00;100546.19;4992551;28;20235;-77
2023/08/14 02:42:10;;;;;;;8.77;2.65;;;;;;;20.22;100.00;100544.47;4985637;28;20278;-77
2023/08/14 02:44:37;;;;;;;15.75;4.72;;;;;;;20.27;100.00;100557.75;4990160;28;20236;-77
2023/08/14 02:47:04;;;;;;;14.45;4.88;;;;;;;20.16;100.00;100551.81;4980249;28;20232;-78
2023/08/14 02:49:31;;;;;;;8.57;2.83;;;;;;;20.13;100.00;100559.03;4999791;28;20310;-80
2023/08/14 02:51:58;;;;;;;8.65;2.65;;;;;;;20.22;100.00;100565.06;4998404;28;20250;-77
2023/08/14 02:54:25;;;;;;;7.35;2.53;;;;;;;20.17;100.00;100565.19;4998853;28;20228;-77
2023/08/14 02:56:52;;;;;;;9.05;3.05;;;;;;;20.12;100.00;100564.44;4990521;28;20251;-77
2023/08/14 02:59:20;;;;;;;7.18;2.65;;;;;;;20.09;100.00;100565.41;5000039;28;20231;-77
2023/08/14 03:01:47;;;;;;;13.70;4.00;;;;;;;20.05;100.00;100571.78;4993646;28;20240;-77
2023/08/14 03:04:15;;;;;;;11.27;3.58;;;;;;;20.02;100.00;100566.50;4999191;28;20228;-77
2023/08/14 03:06:42;;;;;;;15.32;4.60;;;;;;;20.02;100.00;100560.25;4995260;28;20246;-77
2023/08/14 03:09:09;;;;;;;8.02;2.50;;;;;;;20.05;100.00;100571.78;5001189;28;20242;-77
2023/08/14 03:11:36;;;;;;;14.25;4.28;;;;;;;20.03;100.00;100567.38;4994304;28;20251;-77
2023/08/14 03:14:03;;;;;;;10.95;3.72;;;;;;;19.98;100.00;100559.47;4995523;28;20250;-79
2023/08/14 03:16:30;;;;;;;9.48;2.75;;;;;;;19.98;100.00;100553.22;4994965;28;20302;-78
2023/08/14 03:18:57;;;;;;;11.15;3.78;;;;;;;19.92;100.00;100545.34;4991510;28;20270;-77
2023/08/14 03:21:24;;;;;;;7.80;2.72;;;;;;;19.85;100.00;100543.72;4990448;28;20224;-77
2023/08/14 03:23:50;;;;;;;6.55;2.38;;;;;;;19.91;100.00;100548.94;4994416;28;20232;-77
2023/08/14 03:26:17;;;;;;;8.27;2.55;;;;;;;19.88;100.00;100549.91;4993428;28;20242;-77
2023/08/14 03:28:44;;;;;;;10.73;3.45;;;;;;;19.77;100.00;100550.19;4989836;28;20247;-77
2023/08/14 03:31:10;;;;;;;13.70;2.90;;;;;;;19.79;100.00;100555.53;5009288;28;20247;-77
2023/08/14 03:33:37;;;;;;;16.88;5.38;;;;;;;19.81;100.00;100556.34;4993863;28;20672;-77
2023/08/14 03:36:04;;;;;;;11.13;3.38;;;;;;;19.83;100.00;100567.06;4998868;28;20240;-77
2023/08/14 03:38:31;;;;;;;10.38;3.00;;;;;;;19.75;100.00;100561.88;4996932;28;20228;-78
2023/08/14 03:40:58;;;;;;;8.45;2.83;;;;;;;19.70;100.00;100555.75;4976484;28;20235;-77
2023/08/14 03:43:25;;;;;;;10.00;3.03;;;;;;;19.61;100.00;100558.69;4997785;28;20227;-77
2023/08/14 03:45:51;;;;;;;13.18;4.35;;;;;;;19.59;100.00;100560.53;4990085;28;20250;-78
2023/08/14 03:48:18;;;;;;;9.35;2.88;;;;;;;19.62;100.00;100568.50;5000382;28;20241;-78
2023/08/14 03:50:46;;;;;;;7.60;2.60;;;;;;;19.66;100.00;100579.09;4996879;28;20250;-77
2023/08/14 03:53:13;;;;;;;9.13;3.03;;;;;;;19.57;100.00;100587.41;4996033;28;20224;-77
2023/08/14 03:55:40;;;;;;;14.20;4.22;;;;;;;19.51;100.00;100587.50;4992620;28;20236;-78
2023/08/14 03:58:07;;;;;;;10.00;2.90;;;;;;;19.49;100.00;100579.47;4997525;28;20231;-77
2023/08/14 04:00:35;;;;;;;13.60;4.10;;;;;;;19.49;100.00;100579.47;4996148;28;20242;-77
2023/08/14 04:03:03;;;;;;;9.77;3.10;;;;;;;19.46;100.00;100586.72;4998301;28;20318;-78
2023/08/14 04:05:30;;;;;;;9.73;2.78;;;;;;;19.48;100.00;100595.59;5006762;28;20219;-78
2023/08/14 04:07:56;;;;;;;16.33;5.20;;;;;;;19.39;100.00;100596.72;4998715;28;20314;-77
2023/08/14 04:10:24;;;;;;;9.70;3.05;;;;;;;19.43;100.00;100602.88;5005037;28;20234;-78
2023/08/14 04:12:50;;;;;;;10.93;3.85;;;;;;;19.45;100.00;100607.28;4997112;28;20231;-78
2023/08/14 04:15:18;;;;;;;8.55;2.33;;;;;;;19.45;100.00;100607.28;4999600;28;20243;-78
2023/08/14 04:17:44;;;;;;;19.40;5.43;;;;;;;19.39;100.00;100610.13;4990795;28;20231;-78
2023/08/14 04:20:12;;;;;;;9.57;3.13;;;;;;;19.36;100.00;100612.88;4986358;28;20240;-78
2023/08/14 04:22:39;;;;;;;17.13;5.28;;;;;;;19.20;100.00;100614.16;4992336;28;20236;-77
2023/08/14 04:25:06;;;;;;;14.60;4.50;;;;;;;19.17;100.00;100619.59;5001254;28;20259;-77
2023/08/14 04:27:35;;;;;;;20.23;4.55;;;;;;;19.17;100.00;100630.31;4993850;28;20242;-77
2023/08/14 04:30:05;;;;;;;12.15;3.85;;;;;;;19.17;100.00;100636.56;5015189;28;20263;-77
2023/08/14 04:32:33;;;;;;;18.35;5.38;;;;;;;19.19;100.00;100639.22;4995835;28;20259;-78
2023/08/14 04:35:00;;;;;;;9.98;3.28;;;;;;;19.25;100.00;100652.47;5003890;28;20239;-77
2023/08/14 04:37:26;;;;;;;9.57;3.22;;;;;;;19.31;100.00;100662.19;4997390;28;20289;-78
2023/08/14 04:39:53;;;;;;;14.48;4.05;;;;;;;19.34;100.00;100657.63;4981803;28;20263;-78
2023/08/14 04:42:20;;;;;;;11.82;3.95;;;;;;;19.28;100.00;100659.56;4986198;28;20231;-78
2023/08/14 04:44:47;;;;;;;13.30;4.25;;;;;;;19.37;100.00;100668.28;4994554;28;20227;-77
2023/08/14 04:47:13;;;;;;;10.38;3.40;;;;;;;19.36;100.00;100666.53;4997267;28;20228;-78
2023/08/14 04:49:40;;;;;;;16.52;5.45;;;;;;;19.39;100.00;100673.59;4999356;28;20231;-77
2023/08/14 04:52:07;;;;;;;10.48;3.15;;;;;;;19.42;100.00;100677.09;5001708;28;20677;-77
2023/08/14 04:54:34;;;;;;;13.80;5.03;;;;;;;19.44;100.00;100686.00;4998420;28;20230;-76
2023/08/14 04:57:01;;;;;;;11.50;4.72;;;;;;;19.49;100.00;100701.97;4996657;28;20662;-76
2023/08/14 04:59:28;;;;;;;8.48;3.13;;;;;;;19.62;100.00;100700.84;4994602;28;20249;-78
2023/08/14 05:01:55;;;;;;;12.38;3.83;;;;;;;19.66;100.00;100705.22;4993988;28;20262;-75
2023/08/14 05:04:23;;;;;;;9.30;3.03;;;;;;;19.74;100.00;100710.41;4991943;28;20268;-75
2023/08/14 05:06:51;;;;;;;11.93;3.63;;;;;;;19.83;100.00;100714.66;4992141;28;20247;-75
2023/08/14 05:09:18;;;;;;;8.23;2.75;;;;;;;19.89;100.00;100718.06;4994973;28;20318;-75
2023/08/14 05:11:53;;;;;;;9.77;3.72;;;;;;;19.96;100.00;100724.16;4998235;28;20241;-74
2023/08/14 05:14:19;;;;;;;6.68;2.72;;;;;;;20.13;100.00;100738.06;5000460;28;20688;-75
2023/08/14 05:16:46;;;;;;;18.40;5.93;;;;;;;20.14;100.00;100721.91;5012139;28;20275;-75
2023/08/14 05:19:14;;;;;;;7.32;2.42;;;;;;;20.24;100.00;100729.72;4995476;28;20322;-75
2023/08/14 05:21:41;;;;;;;10.68;4.13;;;;;;;20.17;100.00;100731.69;5008476;28;20235;-74
2023/08/14 05:24:08;;;;;;;13.38;4.63;;;;;;;20.30;100.00;100751.03;5000209;28;20287;-76
2023/08/14 05:26:35;;;;;;;15.48;5.60;;;;;;;20.30;100.00;100748.38;4986461;28;20255;-76
2023/08/14 05:29:02;;;;;;;15.70;5.50;;;;;;;20.36;100.00;100765.19;4994288;28;20239;-75
2023/08/14 05:31:28;;;;;;;7.97;2.95;;;;;;;20.48;100.00;100766.72;4998331;28;20228;-76
2023/08/14 05:33:55;;;;;;;8.95;3.25;;;;;;;20.66;100.00;100770.72;4994030;28;20242;-75
2023/08/14 05:36:22;;;;;;;9.23;3.38;;;;;;;20.72;100.00;100765.19;4994212;28;20237;-75
2023/08/14 05:38:49;;;;;;;13.65;4.60;;;;;;;20.67;100.00;100754.56;4981940;28;20243;-76
2023/08/14 05:41:16;;;;;;;6.75;2.40;;;;;;;20.71;100.00;100749.97;4997210;28;20232;-75
2023/08/14 05:43:43;;;;;;;14.23;5.95;;;;;;;20.75;100.00;100744.47;4974015;28;20297;-77
2023/08/14 05:46:10;;;;;;;3.60;1.40;;;;;;;20.83;100.00;100738.91;4998654;28;20235;-76
2023/08/14 05:48:37;;;;;;;9.80;3.58;;;;;;;20.88;100.00;100744.16;4995337;28;20246;-76
2023/08/14 05:51:04;;;;;;;4.88;1.90;;;;;;;20.78;100.00;53775.09;4990338;28;20713;-76
2023/08/14 05:53:31;;;;;;;7.38;2.60;;;;;;;-143.19;100.00;53775.09;4991661;28;20234;-77
2023/08/14 05:55:57;;;;;;;11.77;4.15;;;;;;;-143.19;100.00;53775.09;4986592;28;20739;-76
2023/08/14 05:58:25;;;;;;;5.45;1.88;;;;;;;-143.19;100.00;53775.09;4990572;28;20236;-76
2023/08/14 06:00:52;;;;;;;8.27;2.58;;;;;;;-143.19;100.00;53775.09;4988302;28;20247;-78
2023/08/14 06:03:20;;;;;;;5.22;1.85;;;;;;;-143.19;100.00;53775.09;4984358;28;20285;-76
2023/08/14 06:06:04;;;;;;;10.45;3.42;;;;;;;-143.19;100.00;53775.09;4987249;28;20228;-77
2023/08/14 06:08:31;;;;;;;6.60;2.22;;;;;;;-143.19;100.00;53775.09;5002531;28;20237;-78
2023/08/14 06:10:59;;;;;;;8.90;3.22;;;;;;;-143.19;100.00;53775.09;4967286;28;20259;-76
2023/08/14 06:13:27;;;;;;;7.32;2.25;;;;;;;-143.19;100.00;53775.09;4968829;28;20239;-76
2023/08/14 06:15:54;;;;;;;6.30;2.03;;;;;;;-143.19;100.00;53775.09;4991180;28;20294;-75
2023/08/14 06:18:23;;;;;;;7.70;2.35;;;;;;;-143.19;100.00;53775.09;4987158;28;20266;-76
2023/08/14 06:20:51;;;;;;;9.43;3.33;;;;;;;-143.19;100.00;53775.09;4997436;28;20228;-75
2023/08/14 06:23:19;;;;;;;5.43;1.63;;;;;;;-143.19;100.00;53775.09;4999561;28;20255;-75
2023/08/14 06:25:46;;;;;;;8.35;2.63;;;;;;;-143.19;100.00;53775.09;4970539;28;20311;-74
2023/08/14 06:28:14;;;;;;;5.70;1.95;;;;;;;-143.19;100.00;53775.09;4997133;28;20247;-74
2023/08/14 06:30:41;;;;;;;8.68;2.85;;;;;;;-143.19;100.00;53775.09;4990762;28;20306;-74
2023/08/14 06:33:08;;;;;;;6.90;2.67;;;;;;;-143.19;100.00;53775.09;4989262;28;20227;-74
2023/08/14 06:35:36;;;;;;;9.10;3.28;;;;;;;-143.19;100.00;53775.09;4988559;28;20318;-74
2023/08/14 06:38:03;;;;;;;6.32;2.30;;;;;;;-143.19;100.00;53775.09;4988724;28;20230;-74
2023/08/14 06:40:31;;;;;;;5.00;1.52;;;;;;;-143.19;100.00;53775.09;4989800;28;20235;-74
2023/08/14 06:42:59;;;;;;;11.15;2.97;;;;;;;-143.19;100.00;53775.09;5007643;28;20230;-75
2023/08/14 06:45:26;;;;;;;12.60;3.65;;;;;;;-143.19;100.00;53775.09;4991515;28;20710;-74
2023/08/14 06:47:53;;;;;;;11.38;3.50;;;;;;;-143.19;100.00;53775.09;4994244;28;20262;-74
2023/08/14 06:50:19;;;;;;;10.05;3.53;;;;;;;-143.19;100.00;53775.09;5002347;28;20242;-74
2023/08/14 06:52:47;;;;;;;14.45;4.40;;;;;;;-143.19;100.00;53775.09;4996061;28;20622;-75
2023/08/14 06:55:14;;;;;;;11.40;3.47;;;;;;;-143.19;100.00;53775.09;5000494;28;20254;-75
2023/08/14 06:57:41;;;;;;;18.40;6.40;;;;;;;-143.19;100.00;53775.09;4995694;28;20289;-75
2023/08/14 07:00:13;;;;;;;15.82;4.78;;;;;;;-143.19;100.00;53775.09;4987238;28;20237;-74
2023/08/14 07:02:40;;;;;;;15.50;4.45;;;;;;;-143.19;100.00;53775.09;4990968;28;20325;-75
2023/08/14 07:05:10;;;;;;;13.45;4.53;;;;;;;-143.19;100.00;53775.09;4996892;28;20227;-75
2023/08/14 07:07:38;;;;;;;20.38;6.32;;;;;;;-143.19;100.00;53775.09;4994218;28;20231;-75
2023/08/14 07:10:06;;;;;;;10.77;3.90;;;;;;;-143.19;100.00;53775.09;4994764;28;20239;-75
2023/08/14 07:12:33;;;;;;;10.25;3.45;;;;;;;-143.19;100.00;53775.09;4988509;28;20234;-76
2023/08/14 07:15:02;;;;;;;11.45;4.00;;;;;;;-143.19;100.00;53775.09;4996986;28;20322;-76
2023/08/14 07:17:32;;;;;;;10.07;3.25;;;;;;;-143.19;100.00;53775.09;4993619;28;20235;-76
2023/08/14 07:19:59;;;;;;;11.23;3.40;;;;;;;-143.19;100.00;53775.09;4999673;28;20231;-76
2023/08/14 07:22:26;;;;;;;13.00;3.97;;;;;;;-143.19;100.00;53775.09;5001290;28;20313;-77
2023/08/14 07:24:52;;;;;;;7.68;2.38;;;;;;;-143.19;100.00;53775.09;4988937;28;20276;-74
2023/08/14 07:27:19;;;;;;;8.60;2.92;;;;;;;-143.19;100.00;53775.09;4993841;28;20239;-75
2023/08/14 07:29:49;;;;;;;13.43;4.68;;;;;;;-143.19;100.00;53775.09;4984327;28;20254;-77
2023/08/14 07:32:16;;;;;;;9.38;2.90;;;;;;;-143.19;100.00;53775.09;4994875;28;20243;-76
2023/08/14 07:34:43;;;;;;;17.27;4.82;;;;;;;-143.19;100.00;53775.09;4994184;28;20230;-76
2023/08/14 07:37:10;;;;;;;9.43;2.92;;;;;;;-143.19;100.00;53775.09;5002052;28;20321;-76
2023/08/14 07:39:37;;;;;;;18.92;5.78;;;;;;;-143.19;100.00;53775.09;4997416;28;20230;-76
2023/08/14 07:42:04;;;;;;;11.93;3.90;;;;;;;-143.19;100.00;53775.09;5003406;28;20242;-76
2023/08/14 07:44:30;;;;;;;10.32;3.22;;;;;;;-143.19;100.00;53775.09;4995543;28;20222;-76
2023/08/14 07:46:57;;;;;;;11.35;3.30;;;;;;;-143.19;100.00;53775.09;5000666;28;20232;-76
2023/08/14 07:49:24;;;;;;;10.10;3.05;;;;;;;-143.19;100.00;53775.09;4991403;28;20727;-75
2023/08/14 07:51:51;;;;;;;11.27;3.20;;;;;;;-143.19;100.00;53775.09;4999345;28;20624;-76
2023/08/14 07:54:17;;;;;;;8.30;2.35;;;;;;;-143.19;100.00;53775.09;5000843;28;20325;-75
2023/08/14 07:56:44;;;;;;;10.00;3.03;;;;;;;-143.19;100.00;53775.09;4996044;28;20294;-75
2023/08/14 07:59:14;;;;;;;15.85;3.65;;;;;;;-143.19;100.00;53775.09;4995469;28;20265;-75
2023/08/14 08:01:41;;;;;;;13.60;4.13;;;;;;;-143.19;100.00;53775.09;4997703;28;20672;-76
2023/08/14 08:04:09;;;;;;;10.55;3.13;;;;;;;-143.19;100.00;53775.09;4998024;28;20243;-76
2023/08/14 08:06:35;;;;;;;13.57;4.47;;;;;;;-143.19;100.00;53775.09;4995983;28;20237;-76
2023/08/14 08:09:09;;;;;;;11.25;4.15;;;;;;;-143.19;100.00;53775.09;4993390;28;20679;-76
2023/08/14 08:11:36;;;;;;;10.02;2.90;;;;;;;-143.19;100.00;53775.09;4988239;28;20227;-76
2023/08/14 08:14:05;;;;;;;11.70;3.53;;;;;;;-143.19;100.00;53775.09;5000643;28;20309;-76
2023/08/14 08:16:36;;;;;;;11.52;3.40;;;;;;;-143.19;100.00;53775.09;4999923;28;20259;-76
2023/08/14 08:19:05;;;;;;;11.40;3.45;;;;;;;-143.19;100.00;53775.09;5001440;28;20241;-76
2023/08/14 08:21:32;;;;;;;12.73;3.42;;;;;;;-143.19;100.00;53775.09;4998314;28;20231;-76
2023/08/14 08:23:59;;;;;;;17.10;4.30;;;;;;;-143.19;100.00;53775.09;4995018;28;20326;-75
2023/08/14 08:26:26;;;;;;;10.82;3.17;;;;;;;-143.19;100.00;53775.09;4983999;28;20226;-76
2023/08/14 08:28:52;;;;;;;9.18;2.88;;;;;;;-143.19;100.00;53775.09;4987009;28;20329;-76
2023/08/14 08:31:19;;;;;;;10.95;2.88;;;;;;;-143.19;100.00;53775.09;5000122;28;20604;-76
2023/08/14 08:33:46;;;;;;;19.02;5.43;;;;;;;-143.19;100.00;53775.09;4992726;28;20277;-76
2023/08/14 08:36:13;;;;;;;13.93;3.92;;;;;;;-143.19;100.00;53775.09;4991095;28;20657;-76
2023/08/14 08:38:40;;;;;;;14.50;4.82;;;;;;;-143.19;100.00;53775.09;4990567;28;20238;-76
2023/08/14 08:41:08;;;;;;;16.00;4.88;;;;;;;-143.19;100.00;53775.09;4993453;28;20799;-76
2023/08/14 08:43:36;;;;;;;21.58;5.45;;;;;;;-143.19;100.00;53775.09;4991229;28;20241;-76
2023/08/14 08:46:04;;;;;;;12.23;3.55;;;;;;;-143.19;100.00;53775.09;5010826;28;20321;-76
2023/08/14 08:48:33;;;;;;;12.27;3.15;;;;;;;-143.19;100.00;53775.09;4996175;28;20419;-76
2023/08/14 08:51:00;;;;;;;10.77;2.88;;;;;;;-143.19;100.00;53775.09;4994960;28;20257;-76
2023/08/14 08:53:27;;;;;;;14.70;3.95;;;;;;;-143.19;100.00;53775.09;4997391;28;20264;-76
2023/08/14 08:55:54;;;;;;;11.15;2.97;;;;;;;-143.19;100.00;53775.09;4996339;28;20239;-76
2023/08/14 08:58:23;;;;;;;10.35;2.90;;;;;;;-143.19;100.00;53775.09;4996535;28;20245;-76
2023/08/14 09:00:51;;;;;;;14.55;3.78;;;;;;;-143.19;100.00;53775.09;4994778;28;20231;-76
2023/08/14 09:03:19;;;;;;;8.07;2.53;;;;;;;-143.19;100.00;53775.09;4979690;28;20230;-76
2023/08/14 09:05:46;;;;;;;21.45;5.93;;;;;;;-143.19;100.00;53775.09;4981763;28;20247;-76
2023/08/14 09:08:13;;;;;;;15.65;3.53;;;;;;;-143.19;100.00;53775.09;4998178;28;20673;-76
2023/08/14 09:10:40;;;;;;;20.00;5.28;;;;;;;-143.19;100.00;53775.09;4993763;28;20254;-76
2023/08/14 09:13:07;;;;;;;16.10;4.10;;;;;;;-143.19;100.00;53775.09;4995571;28;20296;-75
2023/08/14 09:15:40;;;;;;;17.45;5.22;;;;;;;-143.19;100.00;53775.09;4991684;28;20233;-75
2023/08/14 09:18:06;;;;;;;15.65;4.28;;;;;;;-143.19;100.00;53775.09;4990806;28;20757;-76
2023/08/14 09:20:35;;;;;;;12.52;3.63;;;;;;;-143.19;100.00;53775.09;4991898;28;20230;-76
2023/08/14 09:23:02;;;;;;;16.75;4.88;;;;;;;-143.19;100.00;53775.09;4996023;28;20654;-76
2023/08/14 09:25:29;;;;;;;12.38;3.47;;;;;;;-143.19;100.00;53775.09;4973898;28;20241;-76
2023/08/14 09:27:56;;;;;;;16.92;4.53;;;;;;;-143.19;100.00;53775.09;4989111;28;20265;-77
2023/08/14 09:30:26;;;;;;;12.95;3.85;;;;;;;-143.19;100.00;53775.09;4993681;28;20277;-76
2023/08/14 09:32:55;;;;;;;14.00;4.15;;;;;;;-143.19;100.00;53775.09;4979908;28;20739;-77
2023/08/14 09:35:22;;;;;;;13.75;3.90;;;;;;;-143.19;100.00;53775.09;4975759;28;20240;-76
2023/08/14 09:37:48;;;;;;;12.30;3.88;;;;;;;-143.19;100.00;53775.09;4985366;28;20255;-77
2023/08/14 09:40:16;;;;;;;12.75;3.75;;;;;;;-143.19;100.00;53775.09;4996437;28;20234;-77
2023/08/14 09:42:44;;;;;;;15.68;4.95;;;;;;;-143.19;100.00;53775.09;4988024;28;20239;-77
2023/08/14 09:45:13;;;;;;;14.48;4.15;;;;;;;-143.19;100.00;53775.09;4991522;28;20235;-77
2023/08/14 09:47:42;;;;;;;19.58;5.55;;;;;;;-143.19;100.00;53775.09;4990065;28;20345;-77
2023/08/14 09:50:15;;;;;;;11.50;3.38;;;;;;;-143.19;100.00;53775.09;4993662;28;20238;-76
2023/08/14 09:52:45;;;;;;;13.23;3.90;;;;;;;-143.19;100.00;53775.09;4988981;28;20235;-76
2023/08/14 09:55:13;;;;;;;11.02;3.47;;;;;;;-143.19;100.00;53775.09;4977470;28;20239;-76
2023/08/14 09:57:40;;;;;;;21.83;5.95;;;;;;;-143.19;100.00;53775.09;4991161;28;20233;-77
2023/08/14 10:00:12;;;;;;;10.85;3.45;;;;;;;-143.19;100.00;53775.09;4994631;28;20963;-77
2023/08/14 10:02:40;;;;;;;14.38;4.22;;;;;;;-143.19;100.00;53775.09;4989220;28;20766;-76
2023/08/14 10:05:09;;;;;;;13.55;3.95;;;;;;;-143.19;100.00;53775.09;4989914;28;20238;-77
2023/08/14 10:07:38;;;;;;;11.98;3.83;;;;;;;-143.19;100.00;53775.09;4992665;28;20293;-77
2023/08/14 10:10:07;;;;;;;10.20;3.35;;;;;;;-143.19;100.00;53775.09;4965100;28;20235;-77
2023/08/14 10:12:40;;;;;;;15.77;5.15;;;;;;;-143.19;100.00;53775.09;4980048;28;20258;-76
2023/08/14 10:15:11;;;;;;;12.75;3.83;;;;;;;-143.19;100.00;53775.09;5003969;28;20237;-77
2023/08/14 10:18:13;;;;;;;15.35;4.47;;;;;;;-143.19;100.00;53775.09;4988782;28;20246;-77
2023/08/14 10:20:42;;;;;;;14.18;4.53;;;;;;;-143.19;100.00;53775.09;5005587;28;20249;-77
2023/08/14 10:23:09;;;;;;;10.05;3.00;;;;;;;-143.19;100.00;53775.09;4999471;28;20274;-77
2023/08/14 10:25:37;;;;;;;16.15;4.30;;;;;;;-143.19;100.00;53775.09;4995862;28;20237;-77
2023/08/14 10:28:05;;;;;;;11.38;3.15;;;;;;;-143.19;100.00;53775.09;4997845;28;20278;-77
2023/08/14 10:30:33;;;;;;;18.60;5.28;;;;;;;-143.19;100.00;53775.09;4986892;28;20231;-78
2023/08/14 10:33:00;;;;;;;15.70;4.57;;;;;;;-143.19;100.00;53775.09;4989685;28;20242;-77
2023/08/14 10:35:28;;;;;;;19.63;5.78;;;;;;;-143.19;100.00;53775.09;4985634;28;20219;-77
2023/08/14 10:37:55;;;;;;;22.35;7.05;;;;;;;-143.19;100.00;53775.09;4984280;28;20841;-77
2023/08/14 10:40:36;;;;;;;22.92;6.65;;;;;;;-143.19;100.00;53775.09;4982608;28;20249;-78
2023/08/14 10:43:05;;;;;;;22.02;5.95;;;;;;;-143.19;100.00;53775.09;4980712;28;20724;-80
2023/08/14 10:45:32;;;;;;;21.95;6.05;;;;;;;-143.19;100.00;53775.09;5000712;28;20648;-79
2023/08/14 10:48:00;;;;;;;21.42;5.90;;;;;;;-143.19;100.00;53775.09;4990089;28;20243;-79
2023/08/14 10:50:30;;;;;;;19.83;5.70;;;;;;;-143.19;100.00;53775.09;5010988;28;20230;-78
2023/08/14 10:52:57;;;;;;;21.45;5.75;;;;;;;-143.19;100.00;53775.09;4981928;28;20242;-78
2023/08/14 10:55:34;;;;;;;10.70;2.97;;;;;;;-143.19;100.00;53775.09;4982791;28;20231;-79
2023/08/14 10:58:01;;;;;;;14.63;3.83;;;;;;;-143.19;100.00;53775.09;4990212;28;20230;-78
2023/08/14 11:00:27;;;;;;;19.67;5.03;;;;;;;-143.19;100.00;53775.09;5009183;28;20242;-80
2023/08/14 11:03:05;;;;;;;15.75;4.03;;;;;;;-143.19;100.00;53775.09;4973125;28;20239;-79
2023/08/14 11:05:36;;;;;;;14.07;3.60;;;;;;;-143.19;100.00;53775.09;4984296;28;20234;-79
2023/08/14 11:08:05;;;;;;;15.38;3.92;;;;;;;-143.19;100.00;53775.09;4998773;28;20237;-78
2023/08/14 11:10:36;;;;;;;11.88;3.08;;;;;;;-143.19;100.00;53775.09;4989989;28;20755;-79
2023/08/14 11:13:06;;;;;;;15.38;4.10;;;;;;;-143.19;100.00;53775.09;4991953;28;20714;-78